Time;durP1;ratioP1;P1;durP2;ratioP2;P2;SDS_P1;SDS_P2;PMS_P1;PMS_P2;Temp;Humidity;BMP_temperature;BMP_pressure;BME280_temperature;BME280_humidity;BME280_pressure;Samples;Min_cycle;Max_cycle;Signal;HPM_P1;HPM_P2
2020/12/14 00:02:02;;;;;;;9.65;6.47;;;;;;;;;;5002669;28;20133;-85
2020/12/14 00:04:30;;;;;;;11.52;8.07;;;;;;;;;;4998531;28;20053;-85
2020/12/14 00:07:00;;;;;;;9.05;6.18;;;;;;;;;;5021488;28;20041;-86
2020/12/14 00:09:27;;;;;;;10.45;6.80;;;;;;;;;;5017922;28;20043;-86
2020/12/14 00:11:53;;;;;;;9.82;6.72;;;;;;;;;;5013114;28;20303;-84
2020/12/14 00:14:19;;;;;;;10.55;6.93;;;;;;;;;;4996230;28;20042;-85
2020/12/14 00:16:48;;;;;;;11.52;7.28;;;;;;;;;;4990923;28;20050;-85
2020/12/14 00:19:15;;;;;;;12.43;7.47;;;;;;;;;;4992072;28;20050;-86
2020/12/14 00:21:42;;;;;;;16.20;7.55;;;;;;;;;;4981024;28;20039;-85
2020/12/14 00:24:09;;;;;;;10.07;7.30;;;;;;;;;;5012659;28;20046;-86
2020/12/14 00:26:36;;;;;;;32.95;9.50;;;;;;;;;;4995344;28;20057;-86
2020/12/14 00:29:02;;;;;;;74.55;9.93;;;;;;;;;;4991487;28;20061;-85
2020/12/14 00:31:30;;;;;;;40.45;7.63;;;;;;;;;;5009342;28;20055;-85
2020/12/14 00:33:57;;;;;;;42.88;7.95;;;;;;;;;;5008588;28;20069;-85
2020/12/14 00:36:23;;;;;;;39.92;9.43;;;;;;;;;;4991319;28;20047;-85
2020/12/14 00:38:52;;;;;;;44.72;8.07;;;;;;;;;;4992187;28;20046;-85
2020/12/14 00:41:21;;;;;;;28.10;7.03;;;;;;;;;;4992485;28;20066;-85
2020/12/14 00:43:50;;;;;;;38.15;8.82;;;;;;;;;;5007855;28;20104;-85
2020/12/14 00:46:18;;;;;;;16.05;7.03;;;;;;;;;;5008283;28;20061;-86
2020/12/14 00:48:45;;;;;;;9.80;7.03;;;;;;;;;;4990414;28;20053;-85
2020/12/14 00:51:11;;;;;;;9.70;7.00;;;;;;;;;;5008106;28;20316;-85
2020/12/14 00:53:39;;;;;;;13.65;7.72;;;;;;;;;;4977015;28;20042;-86
2020/12/14 00:56:08;;;;;;;9.23;6.60;;;;;;;;;;4992051;28;20117;-86
2020/12/14 00:58:37;;;;;;;12.20;6.95;;;;;;;;;;5008914;28;20042;-85
2020/12/14 01:01:04;;;;;;;8.60;5.72;;;;;;;;;;4990687;28;20057;-86
2020/12/14 01:03:30;;;;;;;9.75;6.57;;;;;;;;;;5007990;28;20054;-85
2020/12/14 01:05:57;;;;;;;9.75;6.65;;;;;;;;;;5006001;28;20050;-85
2020/12/14 01:08:27;;;;;;;57.83;17.00;;;;;;;;;;5008265;28;20050;-85
2020/12/14 01:10:53;;;;;;;38.40;9.90;;;;;;;;;;4986101;28;20054;-85
2020/12/14 01:13:19;;;;;;;37.22;9.43;;;;;;;;;;4968919;28;20049;-85
2020/12/14 01:15:46;;;;;;;59.10;11.68;;;;;;;;;;4988826;28;20050;-86
2020/12/14 01:18:13;;;;;;;60.83;10.40;;;;;;;;;;5003957;28;20057;-86
2020/12/14 01:20:39;;;;;;;45.92;9.50;;;;;;;;;;4987495;28;20058;-86
2020/12/14 01:23:06;;;;;;;20.40;6.97;;;;;;;;;;5003906;28;20053;-86
2020/12/14 01:25:36;;;;;;;67.50;9.07;;;;;;;;;;5004910;28;20050;-86
2020/12/14 01:28:06;;;;;;;21.17;5.60;;;;;;;;;;4984269;28;20086;-87
2020/12/14 01:30:32;;;;;;;12.27;6.00;;;;;;;;;;4985842;28;20203;-86
2020/12/14 01:33:00;;;;;;;9.25;5.80;;;;;;;;;;4967853;28;20050;-85
2020/12/14 01:35:26;;;;;;;10.32;5.75;;;;;;;;;;4987369;28;20042;-85
2020/12/14 01:37:53;;;;;;;10.43;6.00;;;;;;;;;;4969487;28;20042;-86
2020/12/14 01:40:20;;;;;;;10.35;6.78;;;;;;;;;;5003244;28;20050;-86
2020/12/14 01:42:48;;;;;;;9.68;6.47;;;;;;;;;;5003277;28;20080;-86
2020/12/14 01:45:14;;;;;;;10.93;6.40;;;;;;;;;;4986481;28;20077;-86
2020/12/14 01:47:42;;;;;;;11.10;7.57;;;;;;;;;;5003600;28;20073;-86
2020/12/14 01:50:13;;;;;;;14.45;7.75;;;;;;;;;;5004136;28;20471;-86
2020/12/14 01:52:40;;;;;;;21.15;10.73;;;;;;;;;;4986043;28;20054;-86
2020/12/14 01:55:07;;;;;;;9.85;7.53;;;;;;;;;;5004120;28;20046;-86
2020/12/14 01:57:33;;;;;;;20.48;12.15;;;;;;;;;;4985568;28;20054;-86
2020/12/14 02:00:00;;;;;;;47.33;19.50;;;;;;;;;;5003209;28;20046;-86
2020/12/14 02:02:27;;;;;;;24.75;15.15;;;;;;;;;;4970099;28;20054;-86
2020/12/14 02:04:56;;;;;;;24.27;13.73;;;;;;;;;;4985448;28;20066;-86
2020/12/14 02:07:24;;;;;;;19.70;13.30;;;;;;;;;;5003926;28;20074;-86
2020/12/14 02:09:53;;;;;;;20.55;11.90;;;;;;;;;;4985212;28;20053;-86
2020/12/14 02:12:21;;;;;;;13.05;9.23;;;;;;;;;;4992411;28;20478;-85
2020/12/14 02:14:48;;;;;;;17.08;11.63;;;;;;;;;;5003167;28;20057;-85
2020/12/14 02:17:18;;;;;;;16.15;10.15;;;;;;;;;;5001830;28;20046;-85
2020/12/14 02:19:44;;;;;;;15.10;8.82;;;;;;;;;;5002286;28;20513;-86
2020/12/14 02:22:10;;;;;;;12.27;7.90;;;;;;;;;;5002693;28;20046;-85
2020/12/14 02:24:37;;;;;;;10.27;6.85;;;;;;;;;;5003309;28;20052;-85
2020/12/14 02:27:03;;;;;;;12.30;7.68;;;;;;;;;;5003114;28;20046;-85
2020/12/14 02:29:29;;;;;;;11.13;7.20;;;;;;;;;;5002952;28;20038;-85
2020/12/14 02:31:55;;;;;;;10.48;7.00;;;;;;;;;;5002086;28;20077;-85
2020/12/14 02:34:21;;;;;;;11.93;7.30;;;;;;;;;;5002066;28;20042;-85
2020/12/14 02:36:47;;;;;;;15.07;8.95;;;;;;;;;;5002121;28;20046;-85
2020/12/14 02:39:13;;;;;;;12.65;8.10;;;;;;;;;;5001994;28;20057;-85
2020/12/14 02:41:40;;;;;;;12.10;7.68;;;;;;;;;;5001317;28;20052;-85
2020/12/14 02:44:06;;;;;;;11.95;7.50;;;;;;;;;;5001533;28;20050;-85
2020/12/14 02:46:32;;;;;;;10.13;6.80;;;;;;;;;;5001518;28;20053;-85
2020/12/14 02:48:57;;;;;;;10.63;7.10;;;;;;;;;;5001327;28;20116;-86
2020/12/14 02:51:23;;;;;;;10.23;7.25;;;;;;;;;;5001844;28;20042;-85
2020/12/14 02:53:50;;;;;;;10.10;7.00;;;;;;;;;;5001287;28;20053;-85
2020/12/14 02:56:16;;;;;;;11.50;7.18;;;;;;;;;;5001289;28;20044;-85
2020/12/14 02:58:44;;;;;;;13.68;8.05;;;;;;;;;;5000595;28;20053;-84
2020/12/14 03:01:10;;;;;;;10.32;7.50;;;;;;;;;;5002165;28;20073;-84
2020/12/14 03:03:36;;;;;;;11.63;7.82;;;;;;;;;;5003088;28;20069;-85
2020/12/14 03:06:02;;;;;;;10.25;7.30;;;;;;;;;;5003525;28;20050;-85
2020/12/14 03:08:28;;;;;;;13.48;8.60;;;;;;;;;;5003263;28;20058;-85
2020/12/14 03:10:53;;;;;;;13.35;8.30;;;;;;;;;;5003370;28;20050;-85
2020/12/14 03:13:19;;;;;;;12.25;7.63;;;;;;;;;;5003708;28;20054;-85
2020/12/14 03:15:46;;;;;;;12.07;7.78;;;;;;;;;;5003451;28;20119;-85
2020/12/14 03:18:12;;;;;;;10.15;6.88;;;;;;;;;;5003662;28;20042;-84
2020/12/14 03:20:38;;;;;;;13.65;7.68;;;;;;;;;;5003634;28;20073;-85
2020/12/14 03:23:04;;;;;;;12.95;7.28;;;;;;;;;;5003493;28;20073;-86
2020/12/14 03:25:30;;;;;;;11.07;7.43;;;;;;;;;;5004499;28;20057;-85
2020/12/14 03:27:56;;;;;;;10.77;7.15;;;;;;;;;;5003769;28;20034;-85
2020/12/14 03:30:22;;;;;;;14.48;9.40;;;;;;;;;;5003727;28;20042;-85
2020/12/14 03:32:49;;;;;;;12.77;7.93;;;;;;;;;;5004111;28;20149;-86
2020/12/14 03:35:15;;;;;;;11.70;7.85;;;;;;;;;;5003843;28;20494;-86
2020/12/14 03:37:41;;;;;;;10.48;6.45;;;;;;;;;;5003626;28;20085;-85
2020/12/14 03:40:07;;;;;;;11.05;7.13;;;;;;;;;;4994719;28;20124;-86
2020/12/14 03:42:33;;;;;;;10.23;6.68;;;;;;;;;;5002016;28;20051;-87
2020/12/14 03:44:59;;;;;;;11.20;6.60;;;;;;;;;;5002380;28;20058;-87
2020/12/14 03:47:29;;;;;;;10.52;5.90;;;;;;;;;;5002281;28;20057;-87
2020/12/14 03:49:56;;;;;;;11.00;6.93;;;;;;;;;;4985373;28;20069;-87
2020/12/14 03:52:22;;;;;;;10.02;6.97;;;;;;;;;;5002422;28;20050;-86
2020/12/14 03:54:48;;;;;;;15.73;11.20;;;;;;;;;;5002528;28;20471;-86
2020/12/14 03:57:14;;;;;;;18.27;11.23;;;;;;;;;;5001863;28;20077;-86
2020/12/14 03:59:40;;;;;;;21.55;14.48;;;;;;;;;;5002931;28;20050;-87
2020/12/14 04:02:06;;;;;;;23.55;15.52;;;;;;;;;;5004426;28;20054;-87
2020/12/14 04:04:32;;;;;;;26.33;16.05;;;;;;;;;;5005874;28;20054;-86
2020/12/14 04:06:59;;;;;;;23.23;14.00;;;;;;;;;;5006238;28;20085;-86
2020/12/14 04:09:25;;;;;;;21.92;13.07;;;;;;;;;;4969456;28;20126;-87
2020/12/14 04:11:51;;;;;;;19.92;11.98;;;;;;;;;;5004031;28;20049;-86
2020/12/14 04:14:17;;;;;;;17.33;12.13;;;;;;;;;;5006549;28;20085;-86
2020/12/14 04:16:43;;;;;;;16.10;11.02;;;;;;;;;;5007051;28;20046;-87
2020/12/14 04:19:09;;;;;;;17.88;11.63;;;;;;;;;;5006814;28;20050;-86
2020/12/14 04:21:35;;;;;;;18.08;11.43;;;;;;;;;;5006251;28;20046;-87
2020/12/14 04:24:02;;;;;;;16.05;11.50;;;;;;;;;;5006579;28;20050;-87
2020/12/14 04:26:28;;;;;;;15.75;10.57;;;;;;;;;;5007224;28;20046;-86
2020/12/14 04:28:54;;;;;;;19.17;11.32;;;;;;;;;;4989753;28;20050;-87
2020/12/14 04:31:20;;;;;;;13.15;9.40;;;;;;;;;;5013947;28;20050;-86
2020/12/14 04:33:46;;;;;;;14.75;9.93;;;;;;;;;;5008391;28;20051;-85
2020/12/14 04:36:13;;;;;;;12.80;8.77;;;;;;;;;;5007722;28;20061;-87
2020/12/14 04:38:39;;;;;;;11.73;9.07;;;;;;;;;;5008454;28;20050;-86
2020/12/14 04:41:06;;;;;;;13.68;9.50;;;;;;;;;;5007663;28;20038;-86
2020/12/14 04:43:32;;;;;;;13.48;9.32;;;;;;;;;;5009325;28;20125;-86
2020/12/14 04:46:00;;;;;;;12.02;8.88;;;;;;;;;;5010701;28;20050;-86
2020/12/14 04:48:26;;;;;;;11.88;7.80;;;;;;;;;;5010141;28;20046;-86
2020/12/14 04:50:52;;;;;;;10.80;6.80;;;;;;;;;;5008964;28;20046;-86
2020/12/14 04:53:18;;;;;;;10.38;7.82;;;;;;;;;;5009355;28;20046;-86
2020/12/14 04:55:44;;;;;;;11.00;7.97;;;;;;;;;;5009192;28;20534;-86
2020/12/14 04:58:10;;;;;;;9.60;6.82;;;;;;;;;;5008170;28;20109;-87
2020/12/14 05:00:38;;;;;;;11.77;8.07;;;;;;;;;;5009235;28;20054;-86
2020/12/14 05:03:04;;;;;;;10.25;7.38;;;;;;;;;;5009973;28;20057;-86
2020/12/14 05:05:31;;;;;;;9.98;7.22;;;;;;;;;;5008774;28;20143;-86
2020/12/14 05:07:57;;;;;;;10.00;7.32;;;;;;;;;;5007999;28;20050;-86
2020/12/14 05:10:24;;;;;;;9.57;6.90;;;;;;;;;;5008548;28;20044;-86
2020/12/14 05:12:50;;;;;;;11.02;8.23;;;;;;;;;;5007077;28;20070;-86
2020/12/14 05:15:25;;;;;;;10.95;7.95;;;;;;;;;;5008817;28;20046;-86
2020/12/14 05:17:52;;;;;;;10.60;7.63;;;;;;;;;;5009225;28;20470;-86
2020/12/14 05:20:19;;;;;;;11.57;7.55;;;;;;;;;;5009139;28;20046;-87
2020/12/14 05:23:02;;;;;;;8.52;6.55;;;;;;;;;;5008619;28;20042;-86
2020/12/14 05:25:29;;;;;;;10.23;6.93;;;;;;;;;;5008076;28;20054;-86
2020/12/14 05:28:11;;;;;;;10.70;6.95;;;;;;;;;;5012045;28;20049;-85
2020/12/14 05:30:41;;;;;;;13.15;8.38;;;;;;;;;;4997151;28;20038;-82
2020/12/14 05:33:07;;;;;;;16.85;9.10;;;;;;;;;;4995393;28;20055;-85
2020/12/14 05:35:36;;;;;;;12.55;8.95;;;;;;;;;;4996488;28;20451;-84
2020/12/14 05:38:09;;;;;;;12.13;8.52;;;;;;;;;;5003726;28;20081;-82
2020/12/14 05:40:35;;;;;;;13.88;8.05;;;;;;;;;;4996853;28;20387;-84
2020/12/14 05:43:07;;;;;;;10.88;7.90;;;;;;;;;;4996881;28;20043;-82
2020/12/14 05:45:33;;;;;;;12.88;8.52;;;;;;;;;;4996162;28;20402;-85
2020/12/14 05:48:00;;;;;;;12.32;7.78;;;;;;;;;;5006183;28;20046;-84
2020/12/14 05:50:27;;;;;;;10.75;8.05;;;;;;;;;;4999383;28;20049;-84
2020/12/14 05:52:54;;;;;;;15.88;10.13;;;;;;;;;;5002530;28;20046;-85
2020/12/14 05:55:21;;;;;;;21.20;12.27;;;;;;;;;;5004335;28;20492;-82
2020/12/14 05:57:49;;;;;;;19.50;11.60;;;;;;;;;;5017477;28;20046;-83
2020/12/14 06:00:16;;;;;;;18.10;11.52;;;;;;;;;;5004162;28;20466;-84
2020/12/14 06:02:42;;;;;;;19.98;14.68;;;;;;;;;;4997522;28;20042;-81
2020/12/14 06:05:09;;;;;;;21.95;14.90;;;;;;;;;;5002078;28;20116;-83
2020/12/14 06:07:38;;;;;;;18.90;13.20;;;;;;;;;;5005425;28;20102;-84
2020/12/14 06:10:06;;;;;;;16.73;11.50;;;;;;;;;;5003241;28;20042;-81
2020/12/14 06:12:33;;;;;;;14.07;9.73;;;;;;;;;;5004118;28;20060;-81
2020/12/14 06:15:00;;;;;;;17.73;9.77;;;;;;;;;;5006486;28;20041;-81
2020/12/14 06:17:27;;;;;;;21.35;12.30;;;;;;;;;;5003755;28;20054;-83
2020/12/14 06:20:00;;;;;;;17.83;12.02;;;;;;;;;;5009213;28;20073;-81
2020/12/14 06:22:27;;;;;;;19.30;11.10;;;;;;;;;;5007850;28;20046;-83
2020/12/14 06:24:56;;;;;;;18.33;11.77;;;;;;;;;;5008858;28;20034;-82
2020/12/14 06:27:24;;;;;;;14.65;9.32;;;;;;;;;;5003129;28;20042;-85
2020/12/14 06:29:50;;;;;;;15.13;9.50;;;;;;;;;;5004436;28;20061;-84
2020/12/14 06:32:38;;;;;;;13.73;10.23;;;;;;;;;;5008709;28;20470;-85
2020/12/14 06:35:14;;;;;;;11.00;6.88;;;;;;;;;;5002614;28;20042;-84
2020/12/14 06:37:51;;;;;;;10.45;5.95;;;;;;;;;;5002166;28;20405;-83
2020/12/14 06:40:18;;;;;;;7.22;4.35;;;;;;;;;;4996700;28;20474;-85
2020/12/14 06:42:44;;;;;;;7.57;5.18;;;;;;;;;;4995870;28;20494;-84
2020/12/14 06:45:12;;;;;;;10.60;6.75;;;;;;;;;;4995423;28;20038;-84
2020/12/14 06:47:43;;;;;;;10.05;6.07;;;;;;;;;;4995941;28;20053;-84
2020/12/14 06:50:22;;;;;;;14.30;5.88;;;;;;;;;;4996079;28;20069;-84
2020/12/14 06:52:49;;;;;;;8.52;5.07;;;;;;;;;;4995409;28;20069;-83
2020/12/14 06:55:15;;;;;;;8.52;5.13;;;;;;;;;;4995281;28;20493;-85
2020/12/14 06:57:41;;;;;;;10.85;4.90;;;;;;;;;;4994920;28;20042;-86
2020/12/14 07:00:08;;;;;;;8.27;4.32;;;;;;;;;;4994736;28;20085;-86
2020/12/14 07:02:35;;;;;;;7.43;4.03;;;;;;;;;;4997627;28;20042;-86
2020/12/14 07:05:02;;;;;;;8.63;3.85;;;;;;;;;;5000309;28;20046;-86
2020/12/14 07:07:32;;;;;;;6.13;3.85;;;;;;;;;;4997151;28;20081;-85
2020/12/14 07:10:15;;;;;;;6.22;3.85;;;;;;;;;;4997405;28;20442;-85
2020/12/14 07:12:43;;;;;;;5.68;3.50;;;;;;;;;;4997556;28;20046;-85
2020/12/14 07:15:22;;;;;;;7.15;4.15;;;;;;;;;;4996059;28;20061;-84
2020/12/14 07:17:48;;;;;;;6.35;3.55;;;;;;;;;;4995184;28;20602;-85
2020/12/14 07:20:19;;;;;;;4.97;3.38;;;;;;;;;;4997841;28;20042;-84
2020/12/14 07:22:48;;;;;;;6.43;3.50;;;;;;;;;;4997325;28;20046;-84
2020/12/14 07:25:21;;;;;;;6.32;3.78;;;;;;;;;;4994963;28;20046;-85
2020/12/14 07:27:47;;;;;;;6.07;3.80;;;;;;;;;;4995240;28;20101;-85
2020/12/14 07:30:13;;;;;;;6.32;4.00;;;;;;;;;;4995115;28;20043;-86
2020/12/14 07:32:39;;;;;;;8.60;4.15;;;;;;;;;;4995068;28;20039;-85
2020/12/14 07:35:07;;;;;;;7.85;3.78;;;;;;;;;;4995083;28;20050;-86
2020/12/14 07:37:34;;;;;;;6.45;3.78;;;;;;;;;;4995449;28;20047;-85
2020/12/14 07:40:00;;;;;;;7.90;3.70;;;;;;;;;;4995551;28;20046;-85
2020/12/14 07:42:27;;;;;;;10.85;5.07;;;;;;;;;;4996339;28;20073;-86
2020/12/14 07:45:05;;;;;;;10.20;5.60;;;;;;;;;;4995211;28;20065;-85
2020/12/14 07:47:31;;;;;;;5.78;3.70;;;;;;;;;;4961612;28;20106;-85
2020/12/14 07:50:05;;;;;;;7.47;3.88;;;;;;;;;;4993177;28;20053;-85
2020/12/14 07:52:33;;;;;;;6.60;3.85;;;;;;;;;;4976981;28;20084;-85
2020/12/14 07:55:00;;;;;;;6.28;3.70;;;;;;;;;;4961774;28;20050;-86
2020/12/14 07:57:31;;;;;;;7.47;3.65;;;;;;;;;;4995587;28;20106;-85
2020/12/14 07:59:57;;;;;;;6.18;3.90;;;;;;;;;;4976290;28;20060;-84
2020/12/14 08:02:24;;;;;;;7.03;3.60;;;;;;;;;;4993604;28;20050;-85
2020/12/14 08:04:50;;;;;;;8.02;3.95;;;;;;;;;;4977318;28;20042;-85
2020/12/14 08:07:17;;;;;;;7.88;4.60;;;;;;;;;;4960871;28;20046;-85
2020/12/14 08:09:46;;;;;;;7.38;3.70;;;;;;;;;;4960399;28;20061;-84
2020/12/14 08:12:13;;;;;;;6.38;3.38;;;;;;;;;;4976840;28;20039;-84
2020/12/14 08:14:40;;;;;;;5.20;3.45;;;;;;;;;;4994076;28;20038;-84
2020/12/14 08:17:11;;;;;;;5.43;2.90;;;;;;;;;;4961377;28;20081;-85
2020/12/14 08:19:37;;;;;;;5.28;3.40;;;;;;;;;;4993888;28;20050;-84
2020/12/14 08:22:06;;;;;;;19.42;9.48;;;;;;;;;;4960368;28;20438;-84
2020/12/14 08:24:33;;;;;;;13.32;7.95;;;;;;;;;;4977252;28;20082;-84
2020/12/14 08:27:00;;;;;;;18.10;10.27;;;;;;;;;;4994249;28;20368;-85
2020/12/14 08:29:28;;;;;;;18.05;11.60;;;;;;;;;;4994467;28;20046;-84
2020/12/14 08:31:57;;;;;;;24.67;11.43;;;;;;;;;;4976729;28;20046;-83
2020/12/14 08:34:34;;;;;;;20.60;10.52;;;;;;;;;;4994042;28;20463;-83
2020/12/14 08:37:00;;;;;;;9.88;6.10;;;;;;;;;;4976892;28;20047;-83
2020/12/14 08:39:26;;;;;;;9.45;5.22;;;;;;;;;;4993837;28;20042;-83
2020/12/14 08:42:04;;;;;;;7.45;4.88;;;;;;;;;;4993501;28;20046;-83
2020/12/14 08:44:30;;;;;;;8.43;5.13;;;;;;;;;;4993662;28;20046;-84
2020/12/14 08:46:56;;;;;;;10.02;5.82;;;;;;;;;;4993247;28;20074;-84
2020/12/14 08:49:22;;;;;;;13.30;6.20;;;;;;;;;;4979163;28;20092;-84
2020/12/14 08:51:49;;;;;;;43.88;32.20;;;;;;;;;;4996742;28;20046;-84
2020/12/14 08:54:17;;;;;;;28.25;20.33;;;;;;;;;;4979665;28;20050;-84
2020/12/14 08:56:43;;;;;;;20.75;14.05;;;;;;;;;;4996662;28;20430;-85
2020/12/14 08:59:13;;;;;;;19.63;13.20;;;;;;;;;;4979021;28;20050;-85
2020/12/14 09:01:39;;;;;;;16.17;9.73;;;;;;;;;;4996455;28;20486;-84
2020/12/14 09:04:06;;;;;;;12.88;8.00;;;;;;;;;;4996405;28;20046;-85
2020/12/14 09:06:33;;;;;;;14.52;8.32;;;;;;;;;;4996459;28;20049;-85
2020/12/14 09:09:01;;;;;;;8.10;5.90;;;;;;;;;;4979188;28;20042;-85
2020/12/14 09:11:28;;;;;;;13.50;8.23;;;;;;;;;;4996179;28;20046;-84
2020/12/14 09:13:56;;;;;;;10.27;6.78;;;;;;;;;;4995836;28;20101;-84
2020/12/14 09:16:22;;;;;;;9.70;6.10;;;;;;;;;;4978193;28;20038;-85
2020/12/14 09:18:48;;;;;;;8.00;5.72;;;;;;;;;;4977897;28;20054;-84
2020/12/14 09:21:15;;;;;;;9.35;6.55;;;;;;;;;;4995335;28;20042;-84
2020/12/14 09:23:42;;;;;;;7.78;5.40;;;;;;;;;;4995103;28;20046;-85
2020/12/14 09:26:08;;;;;;;8.40;5.30;;;;;;;;;;4978385;28;20071;-85
2020/12/14 09:28:34;;;;;;;12.32;8.07;;;;;;;;;;4995515;28;20389;-85
2020/12/14 09:31:01;;;;;;;13.68;10.02;;;;;;;;;;4995983;28;20078;-84
2020/12/14 09:33:27;;;;;;;11.07;8.40;;;;;;;;;;4962073;28;20100;-85
2020/12/14 09:35:53;;;;;;;11.93;8.25;;;;;;;;;;4995541;28;20121;-85
2020/12/14 09:38:20;;;;;;;12.10;9.48;;;;;;;;;;4962030;28;20121;-85
2020/12/14 09:40:51;;;;;;;17.38;13.70;;;;;;;;;;4995529;28;20479;-85
2020/12/14 09:43:17;;;;;;;14.05;10.18;;;;;;;;;;4962545;28;20042;-84
2020/12/14 09:45:43;;;;;;;17.15;12.55;;;;;;;;;;4995850;28;20048;-85
2020/12/14 09:48:09;;;;;;;20.25;14.80;;;;;;;;;;4978454;28;20042;-84
2020/12/14 09:50:35;;;;;;;17.70;13.93;;;;;;;;;;4996345;28;20541;-85
2020/12/14 09:53:01;;;;;;;15.57;11.13;;;;;;;;;;4981197;28;20049;-86
2020/12/14 09:55:29;;;;;;;14.80;10.55;;;;;;;;;;4996387;28;20054;-85
2020/12/14 09:57:54;;;;;;;12.05;9.13;;;;;;;;;;4962556;28;20054;-84
2020/12/14 10:00:21;;;;;;;11.77;9.20;;;;;;;;;;4994728;28;20069;-84
2020/12/14 10:02:47;;;;;;;11.98;9.20;;;;;;;;;;4978048;28;20050;-85
2020/12/14 10:05:13;;;;;;;10.57;8.50;;;;;;;;;;4962142;28;20479;-85
2020/12/14 10:07:42;;;;;;;10.02;7.70;;;;;;;;;;4996401;28;20137;-86
2020/12/14 10:10:08;;;;;;;9.15;7.68;;;;;;;;;;4996415;28;20049;-86
2020/12/14 10:12:35;;;;;;;10.80;7.05;;;;;;;;;;4997016;28;20378;-86
2020/12/14 10:15:01;;;;;;;10.50;6.68;;;;;;;;;;4965495;28;20470;-85
2020/12/14 10:17:27;;;;;;;10.38;7.00;;;;;;;;;;4980626;28;20407;-86
2020/12/14 10:19:54;;;;;;;7.57;5.85;;;;;;;;;;4979223;28;20061;-87
2020/12/14 10:22:20;;;;;;;9.10;5.95;;;;;;;;;;4980088;28;20046;-86
2020/12/14 10:24:46;;;;;;;8.07;5.78;;;;;;;;;;4979942;28;20047;-86
2020/12/14 10:27:13;;;;;;;9.27;6.25;;;;;;;;;;4995754;28;20497;-86
2020/12/14 10:29:40;;;;;;;8.13;6.05;;;;;;;;;;4979631;28;20050;-86
2020/12/14 10:32:06;;;;;;;10.60;5.50;;;;;;;;;;4979804;28;20050;-86
2020/12/14 10:34:32;;;;;;;7.18;4.97;;;;;;;;;;4979998;28;20048;-85
2020/12/14 10:36:58;;;;;;;6.35;4.40;;;;;;;;;;4997905;28;20503;-85
2020/12/14 10:39:24;;;;;;;7.00;5.60;;;;;;;;;;4998374;28;20042;-86
2020/12/14 10:41:52;;;;;;;18.15;13.68;;;;;;;;;;4997251;28;20468;-87
2020/12/14 10:44:18;;;;;;;13.98;10.93;;;;;;;;;;4998946;28;20046;-87
2020/12/14 10:46:47;;;;;;;11.77;9.13;;;;;;;;;;4983354;28;20419;-86
2020/12/14 10:49:13;;;;;;;10.50;7.13;;;;;;;;;;5001391;28;20494;-84
2020/12/14 10:51:47;;;;;;;10.55;7.72;;;;;;;;;;5005548;28;20046;-87
2020/12/14 10:54:14;;;;;;;12.05;8.13;;;;;;;;;;5005585;28;20054;-86
2020/12/14 10:56:40;;;;;;;9.35;6.65;;;;;;;;;;5005455;28;20057;-87
2020/12/14 10:59:07;;;;;;;12.45;8.73;;;;;;;;;;4983847;28;20054;-86
2020/12/14 11:01:35;;;;;;;12.60;8.18;;;;;;;;;;4985824;28;20127;-87
2020/12/14 11:04:06;;;;;;;11.55;9.13;;;;;;;;;;4986155;28;20101;-86
2020/12/14 11:06:35;;;;;;;8.65;6.57;;;;;;;;;;4987771;28;20080;-86
2020/12/14 11:09:03;;;;;;;10.05;6.85;;;;;;;;;;4988728;28;20050;-85
2020/12/14 11:11:32;;;;;;;10.88;8.43;;;;;;;;;;4986429;28;20486;-86
2020/12/14 11:14:01;;;;;;;7.90;5.90;;;;;;;;;;5005533;28;20082;-86
2020/12/14 11:16:32;;;;;;;8.10;5.60;;;;;;;;;;5004342;28;20050;-87
2020/12/14 11:18:59;;;;;;;10.05;6.63;;;;;;;;;;5000461;28;20070;-86
2020/12/14 11:21:26;;;;;;;10.45;7.95;;;;;;;;;;4983590;28;20053;-86
2020/12/14 11:23:52;;;;;;;8.73;5.53;;;;;;;;;;4985449;28;20057;-86
2020/12/14 11:26:18;;;;;;;6.85;5.13;;;;;;;;;;5001713;28;20076;-87
2020/12/14 11:28:45;;;;;;;6.10;4.57;;;;;;;;;;5002928;28;20049;-86
2020/12/14 11:31:11;;;;;;;8.23;5.18;;;;;;;;;;4979167;28;20038;-86
2020/12/14 11:33:39;;;;;;;7.25;5.03;;;;;;;;;;5007091;28;20045;-86
2020/12/14 11:36:06;;;;;;;10.60;5.20;;;;;;;;;;5022345;28;20092;-87
2020/12/14 11:38:38;;;;;;;12.70;5.82;;;;;;;;;;5024259;28;20045;-87
2020/12/14 11:41:05;;;;;;;9.20;6.05;;;;;;;;;;5007718;28;20057;-87
2020/12/14 11:43:37;;;;;;;7.72;5.75;;;;;;;;;;5021864;28;20050;-86
2020/12/14 11:46:09;;;;;;;6.85;4.93;;;;;;;;;;5019884;28;20045;-86
2020/12/14 11:48:35;;;;;;;9.65;5.40;;;;;;;;;;5020429;28;20046;-86
2020/12/14 11:51:01;;;;;;;8.25;6.00;;;;;;;;;;5021298;28;20125;-87
2020/12/14 11:53:27;;;;;;;7.97;5.57;;;;;;;;;;5020979;28;20366;-86
2020/12/14 11:55:55;;;;;;;8.65;5.45;;;;;;;;;;5021715;28;20053;-86
2020/12/14 11:58:21;;;;;;;7.65;5.18;;;;;;;;;;5023890;28;20049;-86
2020/12/14 12:00:47;;;;;;;6.13;4.60;;;;;;;;;;5006321;28;20109;-86
2020/12/14 12:03:13;;;;;;;6.85;4.75;;;;;;;;;;5025064;28;20042;-86
2020/12/14 12:05:39;;;;;;;6.78;5.43;;;;;;;;;;5024805;28;20048;-85
2020/12/14 12:08:05;;;;;;;8.43;5.30;;;;;;;;;;4990640;28;20408;-85
2020/12/14 12:10:31;;;;;;;8.23;5.28;;;;;;;;;;5007641;28;20062;-86
2020/12/14 12:12:58;;;;;;;7.80;5.22;;;;;;;;;;5007082;28;20053;-86
2020/12/14 12:15:24;;;;;;;6.88;4.65;;;;;;;;;;5024320;28;20049;-86
2020/12/14 12:17:50;;;;;;;17.48;11.57;;;;;;;;;;5024492;28;20049;-85
2020/12/14 12:20:16;;;;;;;11.98;9.38;;;;;;;;;;5024750;28;20050;-87
2020/12/14 12:22:42;;;;;;;11.18;8.60;;;;;;;;;;5025832;28;20042;-86
2020/12/14 12:25:08;;;;;;;28.13;18.67;;;;;;;;;;5009368;28;20049;-85
2020/12/14 12:27:34;;;;;;;9.57;6.32;;;;;;;;;;5009468;28;20049;-85
2020/12/14 12:30:01;;;;;;;9.93;8.27;;;;;;;;;;5009179;28;20050;-86
2020/12/14 12:32:27;;;;;;;7.00;5.47;;;;;;;;;;5025387;28;20038;-87
2020/12/14 12:34:53;;;;;;;8.57;5.95;;;;;;;;;;5026689;28;20042;-86
2020/12/14 12:37:20;;;;;;;9.05;6.75;;;;;;;;;;5009916;28;20050;-86
2020/12/14 12:39:46;;;;;;;15.68;10.18;;;;;;;;;;5028640;28;20478;-87
2020/12/14 12:42:12;;;;;;;7.50;4.75;;;;;;;;;;4987738;28;20058;-88
2020/12/14 12:44:38;;;;;;;8.73;6.47;;;;;;;;;;5019676;28;20120;-87
2020/12/14 12:47:06;;;;;;;7.68;4.85;;;;;;;;;;5024855;28;20049;-87
2020/12/14 12:49:32;;;;;;;9.27;5.95;;;;;;;;;;5020851;28;20038;-87
2020/12/14 12:52:00;;;;;;;7.80;5.30;;;;;;;;;;4991283;28;20393;-87
2020/12/14 12:54:34;;;;;;;8.52;6.18;;;;;;;;;;5026273;28;20042;-87
2020/12/14 12:57:06;;;;;;;7.80;5.47;;;;;;;;;;5025867;28;20046;-87
2020/12/14 12:59:38;;;;;;;5.80;4.40;;;;;;;;;;5028240;28;20049;-87
2020/12/14 13:02:11;;;;;;;5.75;4.40;;;;;;;;;;5009899;28;20048;-87
2020/12/14 13:04:38;;;;;;;5.35;4.40;;;;;;;;;;4995391;28;20084;-87
2020/12/14 13:07:05;;;;;;;7.88;6.80;;;;;;;;;;5010380;28;20076;-87
2020/12/14 13:09:32;;;;;;;8.20;7.00;;;;;;;;;;5026746;28;20100;-87
2020/12/14 13:11:58;;;;;;;8.80;6.85;;;;;;;;;;5026491;28;20441;-87
2020/12/14 13:14:25;;;;;;;10.52;6.43;;;;;;;;;;5009158;28;20060;-87
2020/12/14 13:16:51;;;;;;;8.75;6.28;;;;;;;;;;5009130;28;20049;-87
2020/12/14 13:19:21;;;;;;;8.55;5.22;;;;;;;;;;5025757;28;20053;-87
2020/12/14 13:21:47;;;;;;;6.50;4.97;;;;;;;;;;5029352;28;20053;-87
2020/12/14 13:24:19;;;;;;;8.35;5.00;;;;;;;;;;5008985;28;20049;-87
2020/12/14 13:26:51;;;;;;;6.75;3.72;;;;;;;;;;5029598;28;20049;-87
2020/12/14 13:29:20;;;;;;;4.43;3.35;;;;;;;;;;5026751;28;20052;-87
2020/12/14 13:31:46;;;;;;;5.38;2.90;;;;;;;;;;5020823;28;20042;-87
2020/12/14 13:34:12;;;;;;;4.65;3.15;;;;;;;;;;5003544;28;20041;-87
2020/12/14 13:36:41;;;;;;;6.03;3.25;;;;;;;;;;5007887;28;20097;-87
2020/12/14 13:39:08;;;;;;;6.05;3.38;;;;;;;;;;5010531;28;20101;-87
2020/12/14 13:41:36;;;;;;;9.50;3.70;;;;;;;;;;5030032;28;20038;-86
2020/12/14 13:44:05;;;;;;;7.10;3.35;;;;;;;;;;5014110;28;20225;-87
2020/12/14 13:46:31;;;;;;;5.13;3.42;;;;;;;;;;5032629;28;20046;-86
2020/12/14 13:48:59;;;;;;;9.07;5.95;;;;;;;;;;5014479;28;20049;-87
2020/12/14 13:51:27;;;;;;;5.43;3.65;;;;;;;;;;5028413;28;20441;-86
2020/12/14 13:53:54;;;;;;;4.75;3.15;;;;;;;;;;4995036;28;20049;-86
2020/12/14 13:56:20;;;;;;;7.53;3.25;;;;;;;;;;5009804;28;20049;-86
2020/12/14 13:58:46;;;;;;;6.10;3.00;;;;;;;;;;5011068;28;20042;-87
2020/12/14 14:01:15;;;;;;;4.68;2.95;;;;;;;;;;5029433;28;20053;-87
2020/12/14 14:03:42;;;;;;;4.30;2.78;;;;;;;;;;5016101;28;20113;-87
2020/12/14 14:06:09;;;;;;;4.40;2.95;;;;;;;;;;5014771;28;20053;-87
2020/12/14 14:08:35;;;;;;;5.15;2.80;;;;;;;;;;5033288;28;20055;-86
2020/12/14 14:11:03;;;;;;;8.15;3.85;;;;;;;;;;5015933;28;20045;-87
2020/12/14 14:13:47;;;;;;;4.43;2.95;;;;;;;;;;5014597;28;20048;-86
2020/12/14 14:16:16;;;;;;;4.03;2.40;;;;;;;;;;5031389;28;20324;-86
2020/12/14 14:18:43;;;;;;;3.72;2.40;;;;;;;;;;5016827;28;20057;-86
2020/12/14 14:21:10;;;;;;;4.22;2.90;;;;;;;;;;5016420;28;20046;-88
2020/12/14 14:23:36;;;;;;;4.68;3.15;;;;;;;;;;5016971;28;20056;-86
2020/12/14 14:26:05;;;;;;;11.50;3.15;;;;;;;;;;5028702;28;20046;-86
2020/12/14 14:28:34;;;;;;;5.88;3.13;;;;;;;;;;5010540;28;20054;-86
2020/12/14 14:31:10;;;;;;;6.13;3.30;;;;;;;;;;5033284;28;20073;-86
2020/12/14 14:33:46;;;;;;;8.32;3.65;;;;;;;;;;5012865;28;20061;-84
2020/12/14 14:36:17;;;;;;;8.00;3.95;;;;;;;;;;5012885;28;20045;-85